createdAt,value
2019-04-06T00:02:31.253Z,34.63
2019-04-06T00:05:00.092Z,32.27
2019-04-06T00:07:28.590Z,30.67
2019-04-06T00:09:57.086Z,35.70
2019-04-06T00:12:26.860Z,33.43
2019-04-06T00:14:55.343Z,33.17
2019-04-06T00:17:23.839Z,34.70
2019-04-06T00:19:52.317Z,33.93
2019-04-06T00:22:20.855Z,35.97
2019-04-06T00:24:49.677Z,33.87
2019-04-06T00:27:18.177Z,32.43
2019-04-06T00:29:46.654Z,32.90
2019-04-06T00:32:26.508Z,37.57
2019-04-06T00:34:54.990Z,33.50
2019-04-06T00:37:23.849Z,34.53
2019-04-06T00:39:52.602Z,33.73
2019-04-06T00:42:21.103Z,36.97
2019-04-06T00:44:49.907Z,32.27
2019-04-06T00:47:18.424Z,32.07
2019-04-06T00:49:47.261Z,34.67
2019-04-06T00:52:15.756Z,31.70
2019-04-06T00:54:44.247Z,34.73
2019-04-06T00:57:13.350Z,33.97
2019-04-06T00:59:42.090Z,36.23
2019-04-06T01:02:10.904Z,35.80
2019-04-06T01:04:39.420Z,34.10
2019-04-06T01:07:07.920Z,37.07
2019-04-06T01:09:36.716Z,34.97
2019-04-06T01:12:05.269Z,36.10
2019-04-06T01:14:33.759Z,38.10
2019-04-06T01:17:02.259Z,31.87
2019-04-06T01:19:30.734Z,35.77
2019-04-06T01:21:59.291Z,33.20
2019-04-06T01:24:27.775Z,36.17
2019-04-06T01:26:56.510Z,36.57
2019-04-06T01:29:24.993Z,35.17
2019-04-06T01:31:53.508Z,37.63
2019-04-06T01:34:22.272Z,37.67
2019-04-06T01:36:50.787Z,34.53
2019-04-06T01:39:19.275Z,36.80
2019-04-06T01:41:47.747Z,38.60
2019-04-06T01:44:16.250Z,36.43
2019-04-06T01:46:45.003Z,36.90
2019-04-06T01:49:13.499Z,36.37
2019-04-06T01:51:42.156Z,36.43
2019-04-06T01:54:10.572Z,35.23
2019-04-06T01:56:39.023Z,34.87
2019-04-06T01:59:07.615Z,32.80
2019-04-06T02:01:43.338Z,33.97
2019-04-06T02:04:11.838Z,34.80
2019-04-06T02:06:40.333Z,36.07
2019-04-06T02:09:08.813Z,35.30
2019-04-06T02:11:37.293Z,32.70
2019-04-06T02:14:05.774Z,36.53
2019-04-06T02:16:34.263Z,34.43
2019-04-06T02:19:02.826Z,34.70
2019-04-06T02:21:31.304Z,32.77
2019-04-06T02:23:59.793Z,34.97
2019-04-06T02:26:30.889Z,34.90
2019-04-06T02:28:58.615Z,35.10
2019-04-06T02:31:44.856Z,34.07
2019-04-06T02:34:31.492Z,35.63
2019-04-06T02:37:07.917Z,38.07
2019-04-06T02:39:42.741Z,35.73
2019-04-06T02:42:20.856Z,33.97
2019-04-06T02:44:49.326Z,32.93
2019-04-06T02:47:17.877Z,37.63
2019-04-06T02:49:46.346Z,34.87
2019-04-06T02:52:14.841Z,36.97
2019-04-06T02:54:43.291Z,36.87
2019-04-06T02:57:11.823Z,35.20
2019-04-06T02:59:40.301Z,33.20
2019-04-06T03:02:08.774Z,34.43
2019-04-06T03:04:37.271Z,33.80
2019-04-06T03:07:05.822Z,36.33
2019-04-06T03:09:34.391Z,35.27
2019-04-06T03:12:02.999Z,32.33
2019-04-06T03:14:31.746Z,31.23
2019-04-06T03:17:00.248Z,32.33
2019-04-06T03:19:28.738Z,32.90
2019-04-06T03:21:57.513Z,31.03
2019-04-06T03:24:26.002Z,34.07
2019-04-06T03:27:02.138Z,35.30
2019-04-06T03:29:24.692Z,35.93
2019-04-06T03:31:53.176Z,34.87
2019-04-06T03:34:22.522Z,33.50
2019-04-06T03:36:51.439Z,32.13
2019-04-06T03:39:19.993Z,31.07
2019-04-06T03:41:48.521Z,32.23
2019-04-06T03:44:16.994Z,30.90
2019-04-06T03:46:45.540Z,33.77
2019-04-06T03:49:14.181Z,31.17
2019-04-06T03:51:43.081Z,32.67
2019-04-06T03:54:11.563Z,30.00
2019-04-06T03:56:40.058Z,30.93
2019-04-06T03:59:08.556Z,31.60
2019-04-06T04:01:37.295Z,30.80
2019-04-06T04:04:05.785Z,31.47
2019-04-06T04:06:34.259Z,33.67
2019-04-06T04:09:03.164Z,33.17
2019-04-06T04:11:31.927Z,33.13
2019-04-06T04:14:00.745Z,32.87
2019-04-06T04:16:29.206Z,32.73
2019-04-06T04:18:57.712Z,34.13
2019-04-06T04:21:26.212Z,33.27
2019-04-06T04:23:54.701Z,34.90
2019-04-06T04:26:23.390Z,33.13
2019-04-06T04:28:51.926Z,34.23
2019-04-06T04:31:20.407Z,32.70
2019-04-06T04:33:49.179Z,36.00
2019-04-06T04:36:17.964Z,33.13
2019-04-06T04:38:46.749Z,33.57
2019-04-06T04:41:15.264Z,34.37
2019-04-06T04:43:43.730Z,32.67
2019-04-06T04:46:12.195Z,32.83
2019-04-06T04:48:40.953Z,34.13
2019-04-06T04:51:09.563Z,35.60
2019-04-06T04:53:38.032Z,34.30
2019-04-06T04:56:06.587Z,32.53
2019-04-06T04:58:35.072Z,33.13
2019-04-06T05:01:03.811Z,35.07
2019-04-06T05:03:32.294Z,36.57
2019-04-06T05:06:01.272Z,34.50
2019-04-06T05:08:29.718Z,36.93
2019-04-06T05:10:58.177Z,37.77
2019-04-06T05:13:26.695Z,36.80
2019-04-06T05:16:14.866Z,37.03
2019-04-06T05:18:43.585Z,34.20
2019-04-06T05:21:12.229Z,36.90
2019-04-06T05:23:40.875Z,33.77
2019-04-06T05:26:09.576Z,39.57
2019-04-06T05:28:38.061Z,37.63
2019-04-06T05:31:06.559Z,37.30
2019-04-06T05:33:35.397Z,39.03
2019-04-06T05:36:04.218Z,34.57
2019-04-06T05:38:32.690Z,38.00
2019-04-06T05:41:01.166Z,40.27
2019-04-06T05:43:29.698Z,41.73
2019-04-06T05:45:58.117Z,42.87
2019-04-06T05:48:26.742Z,40.80
2019-04-06T05:50:55.183Z,42.23
2019-04-06T05:53:23.678Z,44.13
2019-04-06T05:55:52.397Z,43.60
2019-04-06T05:58:21.034Z,43.53
2019-04-06T06:00:49.523Z,41.57
2019-04-06T06:03:18.109Z,42.53
2019-04-06T06:05:46.588Z,43.20
2019-04-06T06:08:15.113Z,46.53
2019-04-06T06:10:43.559Z,44.87
2019-04-06T06:13:12.118Z,50.47
2019-04-06T06:15:40.604Z,49.83
2019-04-06T06:18:09.092Z,48.50
2019-04-06T06:20:37.814Z,46.00
2019-04-06T06:23:06.338Z,49.30
2019-04-06T06:25:34.858Z,47.87
2019-04-06T06:28:13.868Z,48.90
2019-04-06T06:30:33.762Z,51.53
2019-04-06T06:33:02.267Z,52.50
2019-04-06T06:35:30.986Z,50.50
2019-04-06T06:37:59.492Z,54.77
2019-04-06T06:40:28.179Z,50.70
2019-04-06T06:42:56.693Z,54.13
2019-04-06T06:45:25.252Z,54.50
2019-04-06T06:47:53.742Z,51.27
2019-04-06T06:50:22.547Z,56.40
2019-04-06T06:52:51.051Z,56.97
2019-04-06T06:55:19.558Z,53.27
2019-04-06T06:57:48.063Z,46.87
2019-04-06T07:00:17.022Z,54.40
2019-04-06T07:02:45.513Z,58.47
2019-04-06T07:05:14.008Z,55.47
2019-04-06T07:07:42.757Z,58.23
2019-04-06T07:10:11.583Z,53.10
2019-04-06T07:12:40.041Z,47.70
2019-04-06T07:15:09.295Z,30.03
2019-04-06T07:17:38.098Z,41.00
2019-04-06T07:20:07.700Z,46.17
2019-04-06T07:22:36.765Z,58.10
2019-04-06T07:25:05.802Z,50.73
2019-04-06T07:27:34.318Z,55.23
2019-04-06T07:30:02.798Z,44.53
2019-04-06T07:32:31.391Z,55.60
2019-04-06T07:34:59.870Z,51.27
2019-04-06T07:37:28.365Z,52.50
2019-04-06T07:39:56.821Z,50.67
2019-04-06T07:42:25.325Z,57.27
2019-04-06T07:44:53.790Z,51.73
2019-04-06T07:47:22.563Z,55.30
2019-04-06T07:49:51.119Z,53.77
2019-04-06T07:52:19.698Z,53.07
2019-04-06T07:54:48.125Z,54.53
2019-04-06T07:57:16.616Z,53.07
2019-04-06T07:59:45.139Z,52.30
2019-04-06T08:02:13.641Z,54.37
2019-04-06T08:04:42.409Z,46.17
2019-04-06T08:07:11.197Z,53.87
2019-04-06T08:09:39.881Z,45.03
2019-04-06T08:12:08.381Z,49.73
2019-04-06T08:14:37.171Z,50.93
2019-04-06T08:17:05.663Z,42.83
2019-04-06T08:19:34.147Z,52.90
2019-04-06T08:22:02.639Z,49.47
2019-04-06T08:24:31.124Z,41.83
2019-04-06T08:26:59.601Z,51.53
2019-04-06T08:29:28.085Z,42.57
2019-04-06T08:31:56.704Z,49.37
2019-04-06T08:34:25.192Z,44.43
2019-04-06T08:36:53.683Z,47.97
2019-04-06T08:39:22.222Z,47.60
2019-04-06T08:41:51.224Z,39.83
2019-04-06T08:44:19.752Z,52.17
2019-04-06T08:46:48.582Z,42.60
2019-04-06T08:49:17.028Z,40.40
2019-04-06T08:51:45.512Z,47.73
2019-04-06T08:54:14.103Z,36.90
2019-04-06T08:56:42.654Z,49.33
2019-04-06T08:59:13.173Z,33.43
2019-04-06T09:01:41.717Z,42.33
2019-04-06T09:04:10.254Z,33.40
2019-04-06T09:06:38.759Z,31.10
2019-04-06T09:09:07.521Z,38.90
2019-04-06T09:11:36.018Z,32.00
2019-04-06T09:14:04.638Z,36.73
2019-04-06T09:16:33.234Z,36.77
2019-04-06T09:19:01.737Z,40.33
2019-04-06T09:21:30.230Z,38.60
2019-04-06T09:23:59.294Z,34.23
2019-04-06T09:26:27.786Z,34.67
2019-04-06T09:28:56.298Z,41.17
2019-04-06T09:31:24.795Z,37.07
2019-04-06T09:33:53.259Z,34.57
2019-04-06T09:36:22.081Z,31.57
2019-04-06T09:38:50.822Z,33.97
2019-04-06T09:41:19.581Z,43.03
2019-04-06T09:43:48.115Z,37.30
2019-04-06T09:46:26.956Z,35.43
2019-04-06T09:49:13.690Z,27.57
2019-04-06T09:51:59.674Z,33.43
2019-04-06T09:54:46.104Z,33.77
2019-04-06T09:57:21.947Z,28.97
2019-04-06T09:59:56.168Z,30.57
2019-04-06T10:02:43.714Z,36.87
2019-04-06T10:05:31.238Z,28.97
2019-04-06T10:08:34.207Z,30.67
2019-04-06T10:11:11.576Z,24.37
2019-04-06T10:14:17.512Z,30.80
2019-04-06T10:16:58.292Z,25.03
2019-04-06T10:19:44.441Z,26.50
2019-04-06T10:22:31.911Z,24.30
2019-04-06T10:25:28.736Z,25.17
2019-04-06T10:28:19.911Z,26.17
2019-04-06T10:31:06.291Z,28.50
2019-04-06T10:33:41.146Z,27.83
2019-04-06T10:36:15.640Z,30.00
2019-04-06T10:38:59.797Z,21.33
2019-04-06T10:41:53.377Z,27.80
2019-04-06T10:44:37.630Z,19.70
2019-04-06T10:47:30.936Z,23.20
2019-04-06T10:50:08.069Z,24.53
2019-04-06T10:52:58.407Z,22.83
2019-04-06T10:55:47.824Z,22.87
2019-04-06T10:58:28.933Z,21.90
2019-04-06T11:01:19.548Z,25.93
2019-04-06T11:03:56.480Z,20.53
2019-04-06T11:06:49.533Z,21.07
2019-04-06T11:09:37.252Z,25.97
2019-04-06T11:12:43.283Z,24.40
2019-04-06T11:15:21.644Z,26.50
2019-04-06T11:18:04.670Z,21.10
2019-04-06T11:20:46.681Z,24.07
2019-04-06T11:23:43.080Z,20.47
2019-04-06T11:26:36.610Z,19.73
2019-04-06T11:29:18.875Z,24.10
2019-04-06T11:32:03.731Z,19.87
2019-04-06T11:34:46.180Z,19.70
2019-04-06T11:37:34.878Z,20.27
2019-04-06T11:40:22.761Z,20.93
2019-04-06T11:43:07.004Z,21.67
2019-04-06T11:45:47.971Z,17.87
2019-04-06T11:48:33.035Z,19.00
2019-04-06T11:51:16.672Z,21.30
2019-04-06T11:54:07.236Z,18.10
2019-04-06T11:56:43.760Z,19.67
2019-04-06T11:59:22.967Z,18.17
2019-04-06T12:01:59.199Z,20.27
2019-04-06T12:04:59.321Z,21.90
2019-04-06T12:07:55.746Z,21.57
2019-04-06T12:10:43.114Z,19.37
2019-04-06T12:13:23.781Z,20.47
2019-04-06T12:16:10.270Z,17.37
2019-04-06T12:18:58.272Z,18.40
2019-04-06T12:21:49.115Z,16.37
2019-04-06T12:24:24.699Z,16.93
2019-04-06T12:27:06.686Z,15.67
2019-04-06T12:30:00.042Z,15.67
2019-04-06T12:32:50.859Z,21.27
2019-04-06T12:35:31.714Z,22.37
2019-04-06T12:38:17.823Z,22.80
2019-04-06T12:41:08.777Z,22.23
2019-04-06T12:43:59.134Z,19.90
2019-04-06T12:46:45.499Z,19.90
2019-04-06T12:49:39.793Z,20.00
2019-04-06T12:52:21.176Z,23.23
2019-04-06T12:55:07.517Z,22.10
2019-04-06T12:57:54.148Z,25.80
2019-04-06T13:04:47.753Z,24.63
2019-04-06T13:07:41.175Z,25.40
2019-04-06T13:10:31.528Z,20.20
2019-04-06T13:13:09.330Z,24.83
2019-04-06T13:15:55.345Z,20.30
2019-04-06T13:18:49.008Z,21.43
2019-04-06T13:21:51.668Z,23.13
2019-04-06T13:24:45.500Z,24.07
2019-04-06T13:27:23.881Z,19.87
2019-04-06T13:30:04.260Z,18.00
2019-04-06T13:32:49.235Z,19.77
2019-04-06T13:35:24.233Z,17.63
2019-04-06T13:38:07.242Z,19.63
2019-04-06T13:41:03.918Z,19.03
2019-04-06T13:44:00.610Z,20.73
2019-04-06T13:46:36.698Z,21.07
2019-04-06T13:49:11.430Z,21.83
2019-04-06T13:52:11.409Z,19.87
2019-04-06T13:55:02.090Z,17.60
2019-04-06T13:57:45.027Z,17.77
2019-04-06T14:00:32.370Z,17.63
2019-04-06T14:03:31.898Z,17.53
2019-04-06T14:06:21.667Z,15.20
2019-04-06T14:09:18.894Z,12.60
2019-04-06T14:11:53.779Z,13.07
2019-04-06T14:14:35.733Z,13.63
2019-04-06T14:17:32.641Z,17.63
2019-04-06T14:20:14.199Z,16.90
2019-04-06T14:23:13.854Z,12.73
2019-04-06T14:26:03.575Z,17.13
2019-04-06T14:28:50.697Z,16.43
2019-04-06T14:31:36.940Z,13.57
2019-04-06T14:34:18.548Z,14.43
2019-04-06T14:36:55.253Z,13.20
2019-04-06T14:39:44.026Z,13.23
2019-04-06T14:42:33.193Z,19.00
2019-04-06T14:45:20.096Z,17.37
2019-04-06T14:48:09.410Z,15.43
2019-04-06T14:50:54.011Z,17.60
2019-04-06T14:53:40.412Z,17.40
2019-04-06T14:56:21.700Z,15.90
2019-04-06T14:59:12.383Z,14.57
2019-04-06T15:01:59.299Z,14.30
2019-04-06T15:04:45.616Z,15.73
2019-04-06T15:07:24.889Z,14.13
2019-04-06T15:09:59.263Z,18.57
2019-04-06T15:12:37.295Z,17.33
2019-04-06T15:15:16.044Z,19.77
2019-04-06T15:17:56.149Z,21.67
2019-04-06T15:20:41.017Z,21.73
2019-04-06T15:23:26.791Z,22.23
2019-04-06T15:26:07.873Z,27.97
2019-04-06T15:28:50.690Z,22.37
2019-04-06T15:31:47.447Z,24.53
2019-04-06T15:34:41.731Z,29.53
2019-04-06T15:37:14.818Z,25.07
2019-04-06T15:39:56.711Z,24.97
2019-04-06T15:42:34.600Z,22.63
2019-04-06T15:45:40.301Z,21.53
2019-04-06T15:48:20.822Z,21.93
2019-04-06T15:51:12.087Z,24.00
2019-04-06T15:54:02.429Z,21.80
2019-04-06T15:56:52.955Z,24.40
2019-04-06T15:59:40.869Z,22.03
2019-04-06T16:02:31.593Z,20.20
2019-04-06T16:05:13.347Z,21.17
2019-04-06T16:07:49.316Z,26.27
2019-04-06T16:10:40.308Z,25.87
2019-04-06T16:13:15.815Z,29.43
2019-04-06T16:15:48.743Z,25.97
2019-04-06T16:18:36.533Z,24.60
2019-04-06T16:21:15.781Z,24.07
2019-04-06T16:24:02.231Z,25.03
2019-04-06T16:26:46.347Z,23.57
2019-04-06T16:29:45.838Z,25.07
2019-04-06T16:32:36.258Z,22.97
2019-04-06T16:35:13.762Z,23.53
2019-04-06T16:37:48.944Z,23.93
2019-04-06T16:40:29.582Z,22.27
2019-04-06T16:43:06.977Z,25.63
2019-04-06T16:45:47.031Z,21.83
2019-04-06T16:48:41.153Z,25.03
2019-04-06T16:51:18.679Z,24.10
2019-04-06T16:53:56.272Z,23.57
2019-04-06T16:56:30.707Z,24.47
2019-04-06T16:59:05.913Z,26.13
2019-04-06T17:01:39.466Z,24.30
2019-04-06T17:04:13.604Z,25.57
2019-04-06T17:07:01.717Z,24.43
2019-04-06T17:10:04.427Z,26.07
2019-04-06T17:13:04.146Z,19.97
2019-04-06T17:15:51.672Z,24.83
2019-04-06T17:18:37.827Z,23.13
2019-04-06T17:21:25.144Z,25.30
2019-04-06T17:24:15.691Z,28.30
2019-04-06T17:27:02.415Z,27.47
2019-04-06T17:29:41.617Z,24.57
2019-04-06T17:32:33.922Z,29.40
2019-04-06T17:35:09.866Z,21.87
2019-04-06T17:37:47.688Z,25.87
2019-04-06T17:40:27.953Z,26.43
2019-04-06T17:43:14.149Z,26.63
2019-04-06T17:46:08.291Z,27.53
2019-04-06T17:48:51.942Z,24.83
2019-04-06T17:51:44.023Z,29.90
2019-04-06T17:54:31.113Z,26.73
2019-04-06T17:57:17.883Z,25.50
2019-04-06T18:00:02.920Z,27.90
2019-04-06T18:02:50.896Z,29.13
2019-04-06T18:05:38.607Z,25.60
2019-04-06T18:08:41.537Z,28.50
2019-04-06T18:11:28.062Z,26.23
2019-04-06T18:13:56.778Z,24.93
2019-04-06T18:16:29.358Z,25.27
2019-04-06T18:18:57.925Z,23.33
2019-04-06T18:21:26.396Z,30.17
2019-04-06T18:23:55.271Z,27.87
2019-04-06T18:26:23.852Z,26.17
2019-04-06T18:28:52.749Z,29.20
2019-04-06T18:31:44.929Z,28.20
2019-04-06T18:34:13.713Z,30.17
2019-04-06T18:36:55.611Z,27.20
2019-04-06T18:39:24.336Z,29.83
2019-04-06T18:41:53.565Z,23.47
2019-04-06T18:44:23.062Z,26.83
2019-04-06T18:46:51.850Z,27.53
2019-04-06T18:49:20.390Z,26.83
2019-04-06T18:51:49.008Z,29.07
2019-04-06T18:54:17.505Z,28.53
2019-04-06T18:56:45.935Z,29.07
2019-04-06T18:59:15.154Z,27.23
2019-04-06T19:01:43.726Z,29.57
2019-04-06T19:04:12.302Z,31.63
2019-04-06T19:06:40.814Z,28.90
2019-04-06T19:09:20.663Z,30.33
2019-04-06T19:11:40.834Z,25.20
2019-04-06T19:14:11.117Z,26.83
2019-04-06T19:16:39.654Z,32.53
2019-04-06T19:19:08.131Z,31.23
2019-04-06T19:21:36.600Z,29.90
2019-04-06T19:24:05.515Z,31.63
2019-04-06T19:26:34.080Z,33.83
2019-04-06T19:29:03.112Z,30.30
2019-04-06T19:31:31.724Z,31.53
2019-04-06T19:34:00.581Z,29.73
2019-04-06T19:36:29.539Z,30.03
2019-04-06T19:38:58.120Z,32.20
2019-04-06T19:41:27.049Z,30.17
2019-04-06T19:43:55.666Z,32.20
2019-04-06T19:46:24.724Z,32.03
2019-04-06T19:48:53.295Z,34.80
2019-04-06T19:51:21.804Z,32.83
2019-04-06T19:53:50.306Z,32.20
2019-04-06T19:56:18.782Z,31.00
2019-04-06T19:58:54.999Z,32.00
2019-04-06T20:01:23.440Z,30.73
2019-04-06T20:03:52.688Z,34.30
2019-04-06T20:06:21.508Z,29.90
2019-04-06T20:08:50.007Z,31.53
2019-04-06T20:11:19.195Z,33.43
2019-04-06T20:13:47.968Z,31.93
2019-04-06T20:16:16.458Z,28.77
2019-04-06T20:18:45.052Z,30.60
2019-04-06T20:21:14.223Z,30.87
2019-04-06T20:23:42.965Z,32.07
2019-04-06T20:26:11.582Z,32.20
2019-04-06T20:28:40.090Z,32.77
2019-04-06T20:31:08.532Z,31.37
2019-04-06T20:33:47.339Z,32.70
2019-04-06T20:36:07.218Z,29.73
2019-04-06T20:38:35.958Z,33.20
2019-04-06T20:41:04.435Z,34.87
2019-04-06T20:43:34.391Z,33.60
2019-04-06T20:46:02.900Z,36.30
2019-04-06T20:48:31.415Z,35.63
2019-04-06T20:51:00.522Z,37.67
2019-04-06T20:53:29.043Z,34.07
2019-04-06T20:55:57.535Z,39.47
2019-04-06T20:58:26.046Z,38.83
2019-04-06T21:00:54.530Z,35.70
2019-04-06T21:03:23.280Z,34.93
2019-04-06T21:05:52.121Z,34.80
2019-04-06T21:08:20.874Z,34.87
2019-04-06T21:10:49.440Z,38.37
2019-04-06T21:13:17.918Z,37.73
2019-04-06T21:15:46.761Z,40.70
2019-04-06T21:18:15.261Z,39.97
2019-04-06T21:20:44.067Z,35.37
2019-04-06T21:23:12.911Z,41.20
2019-04-06T21:25:41.802Z,35.20
2019-04-06T21:28:10.349Z,35.40
2019-04-06T21:30:39.078Z,38.53
2019-04-06T21:33:07.953Z,36.83
2019-04-06T21:35:36.847Z,33.93
2019-04-06T21:38:05.555Z,36.20
2019-04-06T21:40:34.162Z,36.47
2019-04-06T21:43:03.084Z,37.33
2019-04-06T21:45:31.996Z,36.97
2019-04-06T21:48:00.545Z,38.57
2019-04-06T21:50:29.338Z,32.77
2019-04-06T21:52:57.851Z,35.37
2019-04-06T21:55:26.363Z,35.07
2019-04-06T21:57:55.334Z,32.77
2019-04-06T22:00:44.971Z,37.87
2019-04-06T22:03:13.934Z,35.53
2019-04-06T22:05:42.419Z,34.87
2019-04-06T22:08:10.885Z,36.80
2019-04-06T22:10:39.514Z,35.20
2019-04-06T22:13:08.387Z,35.57
2019-04-06T22:15:37.299Z,36.60
2019-04-06T22:18:06.209Z,36.10
2019-04-06T22:20:34.767Z,34.57
2019-04-06T22:23:03.827Z,35.07
2019-04-06T22:25:32.479Z,38.17
2019-04-06T22:28:01.011Z,35.03
2019-04-06T22:30:29.487Z,38.00
2019-04-06T22:32:57.999Z,39.23
2019-04-06T22:35:26.513Z,38.50
2019-04-06T22:37:56.187Z,37.10
2019-04-06T22:40:24.994Z,36.83
2019-04-06T22:42:54.122Z,35.37
2019-04-06T22:45:24.127Z,39.77
2019-04-06T22:47:53.096Z,36.63
2019-04-06T22:50:22.025Z,35.63
2019-04-06T22:52:50.570Z,35.97
2019-04-06T22:55:19.066Z,38.27
2019-04-06T22:57:47.781Z,37.10
2019-04-06T23:00:45.437Z,37.23
2019-04-06T23:03:31.953Z,35.07
2019-04-06T23:06:04.075Z,39.43
2019-04-06T23:08:32.640Z,34.83
2019-04-06T23:11:01.385Z,34.77
2019-04-06T23:13:30.254Z,37.57
2019-04-06T23:15:59.293Z,38.13
2019-04-06T23:18:27.795Z,34.20
2019-04-06T23:20:56.514Z,37.80
2019-04-06T23:23:25.065Z,38.27
2019-04-06T23:25:54.102Z,40.87
2019-04-06T23:28:22.677Z,38.30
2019-04-06T23:30:51.147Z,41.87
2019-04-06T23:33:20.067Z,38.73
2019-04-06T23:35:48.573Z,38.73
2019-04-06T23:38:17.063Z,37.80
2019-04-06T23:40:45.537Z,40.23
2019-04-06T23:43:14.007Z,41.47
2019-04-06T23:45:42.518Z,40.40
2019-04-06T23:48:11.027Z,41.57
2019-04-06T23:50:39.592Z,40.67
2019-04-06T23:53:08.064Z,39.57
2019-04-06T23:55:36.629Z,40.00
2019-04-06T23:58:05.041Z,40.73
